Weather observations for the past three days for
Paynesville, Paynesville Municipal Airport
| Date | Time (cdt) | Wind (kph) | Vis. (km) | Weather | Sky Cond. | Temperature (ºC) | Relative Humidity | Wind Chill (°C) | Heat Index (°C) | Pressure | Precipitation (cm) | ||||||
|---|---|---|---|---|---|---|---|---|---|---|---|---|---|---|---|---|---|
| Air | Dwpt | 6 hour | altimeter (cm) | sea level (mb) | 1 hr | 3 hr | 6 hr | ||||||||||
| Max. | Min. | ||||||||||||||||
| 03 | 15:35 | NW 19 G 33 | 16.09 | Fair | CLR | 20 | -3 | 21% | 75.51 | 0.0 | |||||||
| 03 | 15:16 | NW 19 G 26 | 16.09 | Fair | CLR | 20 | -2 | 23% | 75.54 | 0.0 | |||||||
| 03 | 14:55 | NW 19 G 30 | 16.09 | Fair | CLR | 20 | -2 | 23% | 75.54 | 0.0 | |||||||
| 03 | 14:35 | NW 20 G 30 | 16.09 | Fair | CLR | 20 | -2 | 23% | 75.57 | 0.0 | |||||||
| 03 | 14:15 | NW 24 G 37 | 16.09 | Fair | CLR | 20 | -3 | 21% | 75.59 | 0.0 | |||||||
| 03 | 13:55 | NW 24 G 31 | 16.09 | Fair | CLR | 19 | -3 | 22% | 75.62 | 0.0 | |||||||
| 03 | 13:35 | NW 19 G 28 | 16.09 | Fair | CLR | 19 | -3 | 22% | 75.64 | 0.0 | |||||||
| 03 | 13:15 | NW 22 G 35 | 16.09 | Fair | CLR | 19 | -3 | 22% | 75.64 | 0.0 | |||||||
| 03 | 12:56 | NW 15 G 33 | 16.09 | Fair | CLR | 18 | -3 | 24% | 75.67 | 0.0 | |||||||
| 03 | 12:15 | N 24 G 39 | 16.09 | Fair | CLR | 18 | -1 | 28% | 75.67 | 0.0 | |||||||
| 03 | 11:55 | N 22 G 33 | 16.09 | Fair | CLR | 17 | -1 | 30% | 75.67 | 0.0 | |||||||
| 03 | 11:35 | NW 28 G 39 | 16.09 | Fair | CLR | 17 | -1 | 30% | 75.69 | 0.0 | |||||||
| 03 | 11:15 | N 24 G 37 | 16.09 | Fair | CLR | 17 | -1 | 30% | 75.69 | 0.0 | |||||||
| 03 | 10:55 | N 24 G 33 | 16.09 | Fair | CLR | 17 | 1 | 34% | 75.69 | 0.0 | |||||||
| 03 | 10:36 | N 17 G 30 | 16.09 | Fair | CLR | 16 | 2 | 39% | 75.67 | 0.0 | |||||||
| 03 | 10:15 | N 26 G 37 | 16.09 | Fair | CLR | 16 | 2 | 39% | 75.67 | 0.0 | |||||||
| 03 | 09:55 | NW 22 G 31 | 16.09 | Fair | CLR | 15 | 2 | 42% | 75.67 | 0.0 | |||||||
| 03 | 09:35 | NW 24 G 30 | 16.09 | Fair | CLR | 15 | 2 | 42% | 75.67 | 0.0 | |||||||
| 03 | 09:15 | N 22 G 30 | 16.09 | Fair | CLR | 14 | 2 | 44% | 75.67 | 0.0 | |||||||
| 03 | 08:55 | NW 19 G 28 | 16.09 | Fair | CLR | 13 | 3 | 51% | 75.67 | 0.0 | |||||||
| 03 | 08:35 | NW 20 | 16.09 | Fair | CLR | 12 | 3 | 54% | 75.64 | 0.0 | |||||||
| 03 | 08:16 | N 15 | 16.09 | Fair | CLR | 11 | 3 | 58% | 75.64 | 0.0 | |||||||
| 03 | 07:55 | N 15 | 16.09 | Fair | CLR | 10 | 2 | 58% | 8 | 75.62 | 0.0 | ||||||
| 03 | 07:35 | N 17 | 16.09 | Fair | CLR | 9 | 2 | 62% | 7 | 75.59 | 0.0 | ||||||
| 03 | 07:15 | N 17 G 31 | 16.09 | Fair | CLR | 9 | 1 | 58% | 7 | 75.57 | 0.0 | ||||||
| 03 | 06:55 | NW 20 G 28 | 16.09 | Fair | CLR | 8 | 1 | 62% | 5 | 75.54 | 0.0 | ||||||
| 03 | 06:35 | NW 15 | 16.09 | Fair | CLR | 8 | 1 | 62% | 6 | 75.51 | 0.0 | ||||||
| 03 | 06:15 | NW 17 | 16.09 | Fair | CLR | 8 | 1 | 62% | 6 | 75.49 | 0.0 | ||||||
| 03 | 05:56 | NW 17 | 16.09 | Fair | CLR | 8 | 1 | 62% | 6 | 75.46 | 0.0 | ||||||
| 03 | 05:35 | NW 17 | 16.09 | Fair | CLR | 8 | 1 | 62% | 6 | 75.44 | 0.0 | ||||||
| 03 | 05:15 | NW 20 | 16.09 | Fair | CLR | 8 | 2 | 66% | 5 | 75.44 | 0.0 | ||||||
| 03 | 04:55 | NW 17 | 16.09 | Fair | CLR | 8 | 2 | 66% | 6 | 75.41 | 0.0 | ||||||
| 03 | 04:35 | W 13 | 16.09 | Fair | CLR | 6 | 1 | 71% | 4 | 75.41 | 0.0 | ||||||
| 03 | 04:15 | W 11 | 16.09 | Fair | CLR | 6 | 1 | 71% | 4 | 75.39 | 0.0 | ||||||
| 03 | 03:55 | W 9 | 16.09 | Fair | CLR | 7 | 1 | 66% | 5 | 75.39 | 0.0 | ||||||
| 03 | 03:36 | SW 7 | 16.09 | Fair | CLR | 10 | 1 | 54% | 9 | 75.39 | 0.0 | ||||||
| 03 | 03:15 | Calm | 16.09 | Fair | CLR | 10 | 2 | 58% | 75.39 | 0.0 | |||||||
| 03 | 02:55 | Calm | 16.09 | Fair | CLR | 11 | 2 | 54% | 75.41 | 0.0 | |||||||
| 03 | 02:35 | S 11 | 16.09 | Fair | CLR | 11 | 2 | 54% | 75.41 | 0.0 | |||||||
| 03 | 02:15 | S 13 | 16.09 | Fair | CLR | 12 | 2 | 51% | 75.41 | 0.0 | |||||||
| 03 | 01:55 | S 15 | 16.09 | Fair | CLR | 12 | 2 | 51% | 75.44 | 0.0 | |||||||
| 03 | 01:35 | S 13 | 16.09 | Fair | CLR | 13 | 2 | 47% | 75.44 | 0.0 | |||||||
| 03 | 01:16 | S 17 | 16.09 | Fair | CLR | 14 | 2 | 44% | 75.44 | 0.0 | |||||||
| 03 | 00:55 | S 19 G 30 | 16.09 | Partly Cloudy | SCT110 | 14 | 2 | 44% | 75.44 | 0.0 | |||||||
| 03 | 00:35 | S 19 | 16.09 | Partly Cloudy | SCT110 | 14 | 2 | 44% | 75.46 | 0.0 | |||||||
| 03 | 00:15 | S 22 G 31 | 16.09 | Partly Cloudy | SCT110 | 15 | 2 | 42% | 75.46 | 0.0 | |||||||
| 02 | 23:55 | S 19 G 30 | 16.09 | Partly Cloudy | SCT110 | 15 | 2 | 42% | 75.49 | 0.0 | |||||||
| 02 | 23:35 | SW 17 G 28 | 16.09 | Fair | CLR | 15 | 3 | 45% | 75.49 | 0.0 | |||||||
| 02 | 23:15 | S 22 G 31 | 16.09 | Partly Cloudy | SCT100 SCT120 | 15 | 3 | 45% | 75.51 | 0.0 | |||||||
| 02 | 22:56 | SW 17 | 16.09 | Overcast | BKN100 OVC110 | 15 | 3 | 45% | 75.54 | 0.0 | |||||||
| 02 | 22:35 | SW 22 G 28 | 16.09 | Mostly Cloudy | BKN110 | 16 | 2 | 39% | 75.57 | 0.0 | |||||||
| 02 | 22:15 | SW 20 G 35 | 16.09 | Partly Cloudy | SCT110 | 15 | 0 | 36% | 75.57 | 0.0 | |||||||
| 02 | 21:55 | S 15 | 16.09 | Fair | CLR | 14 | 0 | 39% | 75.59 | 0.0 | |||||||
| 02 | 21:35 | S 13 | 16.09 | Partly Cloudy | SCT120 | 13 | 0 | 41% | 75.62 | 0.0 | |||||||
| 02 | 21:15 | S 11 | 16.09 | Partly Cloudy | SCT120 | 14 | 0 | 39% | 75.62 | 0.0 | |||||||
| 02 | 20:55 | S 13 | 16.09 | Partly Cloudy | SCT110 | 14 | 0 | 39% | 75.64 | 0.0 | |||||||
| 02 | 20:36 | SE 7 | 16.09 | Partly Cloudy | SCT120 | 15 | 0 | 36% | 75.64 | 0.0 | |||||||
| 02 | 20:15 | S 6 | 16.09 | Mostly Cloudy | BKN120 | 15 | 0 | 36% | 75.67 | 0.0 | |||||||
| 02 | 19:55 | S 7 | 16.09 | Partly Cloudy | SCT100 SCT120 | 16 | 1 | 36% | 75.69 | 0.0 | |||||||
| 02 | 19:35 | S 9 | 16.09 | Mostly Cloudy | BKN110 | 16 | 0 | 34% | 75.72 | 0.0 | |||||||
| 02 | 19:15 | S 6 | 16.09 | Mostly Cloudy | BKN090 BKN120 | 16 | 1 | 36% | 75.74 | 0.0 | |||||||
| 02 | 18:55 | S 6 | 16.09 | Mostly Cloudy | SCT060 BKN090 BKN120 | 16 | 1 | 36% | 75.79 | 0.0 | |||||||
| 02 | 18:35 | W 11 G 41 | 16.09 | Overcast | BKN070 OVC080 | 16 | 1 | 36% | 75.82 | 0.0 | |||||||
| 02 | 18:16 | W 19 G 33 | 16.09 | Overcast | SCT045 BKN070 OVC080 | 17 | 0 | 32% | 75.84 | 0.0 | |||||||
| 02 | 17:55 | W 41 G 57 | 16.09 | Overcast and Breezy | SCT075 OVC090 | 17 | 0 | 32% | 75.87 | 0.0 | |||||||
| 02 | 17:35 | W 20 | 16.09 | Overcast | SCT075 OVC090 | 18 | -1 | 28% | 75.82 | 0.0 | |||||||
| 02 | 17:15 | W 24 G 31 | 16.09 | Mostly Cloudy | BKN100 BKN120 | 18 | -1 | 28% | 75.82 | 0.0 | |||||||
| 02 | 16:55 | W 28 G 35 | 16.09 | Partly Cloudy | SCT090 SCT120 | 19 | -1 | 26% | 75.84 | 0.0 | |||||||
| 02 | 16:35 | W 33 | 16.09 | Mostly Cloudy and Breezy | SCT090 BKN120 | 19 | -1 | 26% | 75.84 | 0.0 | |||||||
| 02 | 16:15 | W 30 G 39 | 16.09 | Mostly Cloudy | BKN090 | 19 | -1 | 26% | 75.84 | 0.0 | |||||||
| 02 | 15:56 | SW 30 G 39 | 16.09 | Partly Cloudy | SCT100 | 20 | -1 | 24% | 75.87 | 0.0 | |||||||
| 02 | 15:35 | W 28 G 37 | 16.09 | Partly Cloudy | SCT090 | 20 | -1 | 24% | 75.9 | 0.0 | |||||||
| 02 | 15:15 | W 26 G 35 | 16.09 | Mostly Cloudy | BKN090 | 21 | 0 | 25% | 75.92 | 0.0 | |||||||
| 02 | 14:55 | SW 28 G 43 | 16.09 | Partly Cloudy | SCT080 SCT110 | 21 | 0 | 25% | 75.95 | 0.0 | |||||||
| 02 | 14:35 | SW 20 G 33 | 16.09 | Fair | CLR | 20 | 0 | 26% | 75.97 | 0.0 | |||||||
| 02 | 14:15 | SW 15 G 26 | 16.09 | Fair | CLR | 19 | 0 | 28% | 76 | 0.0 | |||||||
| 02 | 13:55 | SW 17 G 28 | 16.09 | Partly Cloudy | SCT110 | 18 | 0 | 30% | 76.05 | 0.0 | |||||||
| 02 | 13:36 | SW 19 G 28 | 16.09 | Partly Cloudy | SCT110 | 18 | 0 | 30% | 76.05 | 0.0 | |||||||
| 02 | 13:15 | SW 22 G 35 | 16.09 | Fair | CLR | 17 | 0 | 32% | 76.1 | 0.0 | |||||||
| 02 | 12:55 | SW 20 G 33 | 16.09 | Fair | CLR | 17 | 0 | 32% | 76.12 | 0.0 | |||||||
| 02 | 12:35 | SW 20 G 33 | 16.09 | Fair | CLR | 16 | -1 | 31% | 76.15 | 0.0 | |||||||
| 02 | 12:15 | SW 19 G 28 | 16.09 | Fair | CLR | 15 | -1 | 34% | 76.17 | 0.0 | |||||||
| 02 | 11:55 | SW 22 G 31 | 16.09 | Fair | CLR | 15 | -1 | 34% | 76.2 | 0.0 | |||||||
| 02 | 11:35 | SW 22 | 16.09 | Fair | CLR | 14 | -1 | 36% | 76.23 | 0.0 | |||||||
| 02 | 11:16 | SW 15 G 28 | 16.09 | Fair | CLR | 14 | -2 | 33% | 76.25 | 0.0 | |||||||
| 02 | 10:55 | S 17 G 26 | 16.09 | Fair | CLR | 14 | -2 | 33% | 76.28 | 0.0 | |||||||
| 02 | 10:35 | W 22 G 28 | 16.09 | Fair | CLR | 13 | -2 | 36% | 76.3 | 0.0 | |||||||
| 02 | 10:15 | W 19 | 16.09 | Fair | CLR | 12 | -2 | 38% | 76.3 | 0.0 | |||||||
| 02 | 09:55 | W 17 | 16.09 | Partly Cloudy | SCT090 | 12 | -2 | 38% | 76.33 | 0.0 | |||||||
| 02 | 09:35 | SW 19 | 16.09 | Partly Cloudy | SCT090 | 11 | -2 | 41% | 76.35 | 0.0 | |||||||
| 02 | 09:15 | W 17 | 16.09 | Fair | CLR | 10 | -2 | 43% | 8 | 76.35 | 0.0 | ||||||
| 02 | 08:56 | SW 11 | 16.09 | Fair | CLR | 9 | -1 | 50% | 8 | 76.38 | 0.0 | ||||||
| 02 | 08:35 | W 13 | 16.09 | Fair | CLR | 8 | -1 | 53% | 6 | 76.38 | 0.0 | ||||||
| 02 | 08:15 | W 17 | 16.09 | Fair | CLR | 7 | -1 | 57% | 4 | 76.38 | 0.0 | ||||||
| 02 | 07:55 | W 15 | 16.09 | Fair | CLR | 6 | -1 | 61% | 3 | 76.4 | 0.0 | ||||||
| 02 | 07:35 | W 7 | 16.09 | Fair | CLR | 3 | 0 | 81% | 1 | 76.4 | 0.0 | ||||||
| 02 | 07:15 | W 7 | 16.09 | Partly Cloudy | SCT085 | 2 | -1 | 81% | 0 | 76.4 | 0.0 | ||||||
| 02 | 06:55 | Calm | 16.09 | Fair | CLR | -1 | -2 | 93% | 76.4 | 0.0 | |||||||
| 02 | 06:36 | W 6 | 16.09 | Fair | CLR | -2 | -3 | 93% | 76.4 | 0.0 | |||||||
| 02 | 06:15 | W 6 | 16.09 | Fair | CLR | -2 | -4 | 86% | 76.4 | 0.0 | |||||||
| 02 | 05:55 | W 6 | 16.09 | Fair | CLR | -2 | -4 | 86% | 76.4 | 0.0 | |||||||
| 02 | 05:35 | W 6 | 16.09 | Fair | CLR | -2 | -4 | 86% | 76.43 | 0.0 | |||||||
| 02 | 05:15 | W 7 | 16.09 | Fair | CLR | -2 | -4 | 86% | -4 | 76.43 | 0.0 | ||||||
| 02 | 04:55 | W 7 | 16.09 | Fair | CLR | -2 | -4 | 86% | -4 | 76.43 | 0.0 | ||||||
| 02 | 04:35 | W 7 | 16.09 | Fair | CLR | -2 | -4 | 86% | -4 | 76.43 | 0.0 | ||||||
| 02 | 04:16 | W 7 | 16.09 | Fair | CLR | -1 | -4 | 80% | -3 | 76.43 | 0.0 | ||||||
| 02 | 03:55 | W 6 | 16.09 | Fair | CLR | -1 | -3 | 86% | 76.4 | 0.0 | |||||||
| 02 | 03:35 | W 6 | 16.09 | Fair | CLR | -1 | -4 | 80% | 76.4 | 0.0 | |||||||
| 02 | 02:55 | W 7 | 16.09 | Fair | CLR | -1 | -4 | 80% | -3 | 76.4 | 0.0 | ||||||
| 02 | 02:35 | W 6 | 16.09 | Fair | CLR | -1 | -4 | 80% | 76.4 | 0.0 | |||||||
| 02 | 02:15 | W 6 | 16.09 | Fair | CLR | -1 | -4 | 80% | 76.43 | 0.0 | |||||||
| 02 | 01:56 | W 6 | 16.09 | Fair | CLR | 0 | -4 | 75% | 76.43 | 0.0 | |||||||
| 02 | 01:35 | W 7 | 16.09 | Fair | CLR | 0 | -4 | 75% | -2 | 76.45 | 0.0 | ||||||
| 02 | 01:15 | W 7 | 16.09 | Fair | CLR | 0 | -4 | 75% | -2 | 76.45 | 0.0 | ||||||
| 02 | 00:55 | W 7 | 16.09 | Fair | CLR | 0 | -4 | 75% | -2 | 76.45 | 0.0 | ||||||
| 02 | 00:35 | W 7 | 16.09 | Fair | CLR | 0 | -4 | 75% | -2 | 76.43 | 0.0 | ||||||
| 02 | 00:15 | W 7 | 16.09 | Fair | CLR | 1 | -3 | 75% | -1 | 76.45 | 0.0 | ||||||
| 01 | 23:55 | W 7 | 16.09 | Fair | CLR | 1 | -4 | 70% | -1 | 76.45 | 0.0 | ||||||
| 01 | 23:36 | W 6 | 16.09 | Fair | CLR | 1 | -3 | 75% | 76.45 | 0.0 | |||||||
| 01 | 23:15 | W 7 | 16.09 | Fair | CLR | 1 | -3 | 75% | -1 | 76.45 | 0.0 | ||||||
| 01 | 22:55 | W 7 | 16.09 | Fair | CLR | 2 | -3 | 70% | 0 | 76.45 | 0.0 | ||||||
| 01 | 22:35 | Calm | 16.09 | Fair | CLR | 2 | -3 | 70% | 76.45 | 0.0 | |||||||
| 01 | 22:15 | Calm | 16.09 | Fair | CLR | 3 | -3 | 65% | 76.45 | 0.0 | |||||||
| 01 | 21:55 | Calm | 16.09 | Fair | CLR | 3 | -3 | 65% | 76.45 | 0.0 | |||||||
| 01 | 21:35 | Calm | 16.09 | Fair | CLR | 4 | -4 | 56% | 76.43 | 0.0 | |||||||
| 01 | 21:16 | Calm | 16.09 | Fair | CLR | 6 | -3 | 53% | 76.43 | 0.0 | |||||||
| 01 | 20:55 | Calm | 16.09 | Partly Cloudy | SCT080 | 7 | -4 | 46% | 76.43 | 0.0 | |||||||
| 01 | 20:35 | Calm | 16.09 | Overcast | OVC080 | 9 | -4 | 40% | 76.4 | 0.0 | |||||||
| 01 | 20:15 | Calm | 16.09 | Overcast | OVC080 | 10 | -5 | 35% | 76.4 | 0.0 | |||||||
| 01 | 19:55 | NW 7 | 16.09 | Mostly Cloudy | BKN080 | 10 | -5 | 35% | 9 | 76.4 | 0.0 | ||||||
| 01 | 19:35 | NW 7 | 16.09 | Mostly Cloudy | BKN080 | 11 | -6 | 30% | 76.38 | 0.0 | |||||||
| 01 | 19:15 | N 7 | 16.09 | Overcast | OVC080 | 11 | -7 | 28% | 76.38 | 0.0 | |||||||
| 01 | 18:56 | N 6 | 16.09 | Mostly Cloudy | BKN080 | 12 | -6 | 28% | 76.38 | 0.0 | |||||||
| 01 | 18:35 | N 6 | 16.09 | Mostly Cloudy | BKN080 | 12 | -6 | 28% | 76.4 | 0.0 | |||||||
| 01 | 18:15 | NE 6 | 16.09 | Mostly Cloudy | BKN070 | 11 | -6 | 30% | 76.4 | 0.0 | |||||||
| 01 | 17:55 | NE 11 | 16.09 | Mostly Cloudy | BKN070 | 12 | -6 | 28% | 76.4 | 0.0 | |||||||
| 01 | 17:35 | NE 9 | 16.09 | Mostly Cloudy | BKN070 | 11 | -5 | 32% | 76.4 | 0.0 | |||||||
| 01 | 17:15 | NE 9 | 16.09 | Mostly Cloudy | BKN070 | 12 | -5 | 30% | 76.43 | 0.0 | |||||||
| 01 | 16:55 | NE 6 | 16.09 | Partly Cloudy | SCT070 | 11 | -6 | 30% | 76.4 | 0.0 | |||||||
| 01 | 16:36 | NW 13 | 16.09 | Mostly Cloudy | BKN070 | 12 | -5 | 30% | 76.4 | 0.0 | |||||||
| 01 | 16:15 | NW 9 | 16.09 | Partly Cloudy | SCT070 | 11 | -5 | 32% | 76.43 | 0.0 | |||||||
| 01 | 15:55 | NW 6 | 16.09 | Mostly Cloudy | BKN070 | 11 | -5 | 32% | 76.43 | 0.0 | |||||||
| 01 | 15:35 | Calm | 16.09 | Mostly Cloudy | BKN070 | 10 | -5 | 35% | 76.45 | 0.0 | |||||||
| 01 | 15:15 | NE 6 | 16.09 | Partly Cloudy | SCT060 | 10 | -6 | 32% | 76.45 | 0.0 | |||||||
| 01 | 14:55 | W 20 | 16.09 | Mostly Cloudy | BKN060 | 9 | -5 | 37% | 6 | 76.45 | 0.0 | ||||||
| 01 | 14:35 | Calm | 16.09 | Partly Cloudy | SCT070 | 11 | -5 | 32% | 76.45 | 0.0 | |||||||
| 01 | 14:16 | NW 6 | 16.09 | Overcast | OVC070 | 10 | -5 | 35% | 76.48 | 0.0 | |||||||
| 01 | 13:55 | W 13 | 16.09 | Overcast | OVC065 | 9 | -4 | 40% | 7 | 76.48 | 0.0 | ||||||
| 01 | 13:35 | NE 13 | 16.09 | Mostly Cloudy | BKN065 | 11 | -4 | 35% | 76.48 | 0.0 | |||||||
| 01 | 13:15 | Calm | 16.09 | Mostly Cloudy | BKN065 | 8 | -5 | 40% | 76.48 | 0.0 | |||||||
| 01 | 12:55 | N 7 | 16.09 | Overcast | OVC065 | 8 | -5 | 40% | 7 | 76.48 | 0.0 | ||||||
| 01 | 12:35 | Calm | 16.09 | Mostly Cloudy | BKN055 | 8 | -5 | 40% | 76.5 | 0.0 | |||||||
| 01 | 12:15 | N 11 | 16.09 | Mostly Cloudy | BKN055 | 8 | -5 | 40% | 6 | 76.5 | 0.0 | ||||||
| 01 | 11:56 | NW 7 | 16.09 | Mostly Cloudy | BKN055 | 8 | -4 | 43% | 7 | 76.5 | 0.0 | ||||||
| 01 | 11:35 | NW 11 | 16.09 | Mostly Cloudy | BKN055 | 7 | -5 | 43% | 5 | 76.5 | 0.0 | ||||||
| 01 | 11:15 | N 7 | 16.09 | Fair | CLR | 7 | -4 | 46% | 6 | 76.53 | 0.0 | ||||||
| 01 | 10:55 | NE 7 | 16.09 | Partly Cloudy | SCT048 SCT060 | 8 | -5 | 40% | 7 | 76.5 | 0.0 | ||||||
| 01 | 10:35 | E 9 | 16.09 | Mostly Cloudy | BKN060 | 7 | -4 | 46% | 5 | 76.53 | 0.0 | ||||||
| 01 | 10:15 | NE 6 | 16.09 | Overcast | OVC050 | 7 | -4 | 46% | 76.53 | 0.0 | |||||||
| 01 | 09:55 | E 7 | 16.09 | Overcast | OVC050 | 6 | -3 | 53% | 5 | 76.5 | 0.0 | ||||||
| 01 | 09:36 | NE 7 | 16.09 | Overcast | OVC050 | 6 | -2 | 57% | 5 | 76.5 | 0.0 | ||||||
| 01 | 09:15 | E 6 | 16.09 | Mostly Cloudy | BKN050 | 5 | -3 | 57% | 76.5 | 0.0 | |||||||
| 01 | 08:55 | Calm | 16.09 | Partly Cloudy | SCT050 | 5 | -3 | 57% | 76.48 | 0.0 | |||||||
| 01 | 08:35 | NE 6 | 16.09 | Partly Cloudy | SCT050 | 4 | -4 | 56% | 76.48 | 0.0 | |||||||
| 01 | 08:15 | Calm | 16.09 | Mostly Cloudy | BKN050 | 3 | -2 | 70% | 76.48 | 0.0 | |||||||
| 01 | 07:55 | Calm | 16.09 | Overcast | OVC050 | 1 | -2 | 81% | 76.45 | 0.0 | |||||||
| 01 | 07:35 | Calm | 16.09 | Mostly Cloudy | BKN050 | 0 | -2 | 87% | 76.45 | 0.0 | |||||||
| 01 | 07:16 | Calm | 16.09 | Partly Cloudy | SCT050 | 0 | -2 | 87% | 76.43 | 0.0 | |||||||
| 01 | 06:55 | Calm | 16.09 | Fair | CLR | -2 | -3 | 93% | 76.43 | 0.0 | |||||||
| 01 | 06:35 | Calm | 16.09 | Fair | CLR | -2 | -3 | 93% | 76.4 | 0.0 | |||||||
| 01 | 06:15 | Calm | 16.09 | Fair | CLR | -2 | -3 | 93% | 76.4 | 0.0 | |||||||
| 01 | 05:55 | Calm | 16.09 | Fair | CLR | -1 | -3 | 86% | 76.38 | 0.0 | |||||||
| 01 | 05:35 | Calm | 16.09 | Fair | CLR | -2 | -3 | 93% | 76.38 | 0.0 | |||||||
| 01 | 05:15 | Calm | 16.09 | Fair | CLR | -1 | -3 | 86% | 76.38 | 0.0 | |||||||
| 01 | 04:56 | Calm | 16.09 | Fair | CLR | 0 | -3 | 80% | 76.38 | 0.0 | |||||||
| 01 | 04:35 | Calm | 16.09 | Partly Cloudy | SCT065 | 1 | -3 | 75% | 76.35 | 0.0 | |||||||
| 01 | 04:15 | NE 6 | 16.09 | Partly Cloudy | SCT065 | 1 | -2 | 81% | 76.35 | 0.0 | |||||||
| 01 | 03:55 | N 7 | 16.09 | Mostly Cloudy | BKN065 | 2 | -2 | 75% | 0 | 76.35 | 0.0 | ||||||
| 01 | 03:35 | Calm | 16.09 | Mostly Cloudy | SCT050 BKN065 | 2 | -2 | 75% | 76.35 | 0.0 | |||||||
| 01 | 03:15 | N 6 | 16.09 | Overcast | OVC055 | 2 | -2 | 75% | 76.35 | 0.0 | |||||||
| 01 | 02:55 | NW 6 | 16.09 | Overcast | SCT060 OVC065 | 3 | -2 | 70% | 76.35 | 0.0 | |||||||
| 01 | 02:36 | Calm | 16.09 | Overcast | OVC070 | 3 | -2 | 70% | 76.35 | 0.0 | |||||||
| 01 | 02:15 | Calm | 16.09 | Overcast | OVC070 | 3 | -2 | 70% | 76.35 | 0.0 | |||||||
| 01 | 01:55 | Calm | 16.09 | Overcast | OVC060 | 3 | -2 | 70% | 76.35 | 0.0 | |||||||
| 01 | 01:35 | Calm | 16.09 | Mostly Cloudy | BKN060 | 3 | -1 | 75% | 76.35 | 0.0 | |||||||
| 01 | 01:15 | N 9 | 16.09 | Partly Cloudy | SCT060 | 3 | -1 | 75% | 1 | 76.35 | 0.0 | ||||||
| 01 | 00:55 | Calm | 16.09 | Fair | CLR | 2 | 0 | 87% | 76.35 | 0.0 | |||||||
| 01 | 00:35 | Calm | 16.09 | Fair | CLR | 2 | 2 | 100% | 76.33 | 0.0 | |||||||
| 30 | 23:55 | W 7 | 16.09 | Partly Cloudy | SCT055 | 2 | 2 | 100% | 0 | 76.3 | 0.0 | ||||||
| 30 | 23:35 | W 6 | 16.09 | Partly Cloudy | SCT055 SCT080 | 3 | 2 | 93% | 76.3 | 0.0 | |||||||
| 30 | 23:15 | W 6 | 16.09 | Overcast | BKN055 BKN070 OVC080 | 3 | 2 | 93% | 76.3 | 0.0 | |||||||
| 30 | 22:55 | W 6 | 16.09 | Overcast | BKN055 OVC080 | 3 | 3 | 100% | 76.3 | 0.0 | |||||||
| 30 | 22:35 | W 7 | 16.09 | Overcast | BKN055 BKN065 OVC085 | 3 | 2 | 93% | 1 | 76.3 | 0.0 | ||||||
| 30 | 22:15 | W 7 | 16.09 | Mostly Cloudy | BKN065 BKN075 | 3 | 2 | 93% | 1 | 76.3 | 0.0 | ||||||
| 30 | 21:56 | W 6 | 16.09 | Mostly Cloudy | BKN065 BKN075 | 4 | 3 | 93% | 76.33 | 0.0 | |||||||
| 30 | 21:35 | W 6 | 16.09 | Overcast | SCT050 OVC065 | 4 | 3 | 93% | 76.3 | 0.0 | |||||||
| 30 | 21:15 | W 7 | 16.09 | Overcast | BKN050 OVC065 | 4 | 3 | 93% | 2 | 76.3 | 0.0 | ||||||
| 30 | 20:55 | Calm | 16.09 | Overcast | BKN050 OVC065 | 5 | 2 | 81% | 76.28 | 0.0 | |||||||
| 30 | 20:35 | Calm | 16.09 | Overcast | OVC050 | 4 | 2 | 87% | 76.28 | 0.0 | |||||||
| 30 | 20:15 | SW 9 | 16.09 | Overcast | OVC060 | 5 | 2 | 81% | 3 | 76.25 | 0.0 | ||||||
| 30 | 19:55 | SW 9 | 16.09 | Overcast | SCT026 SCT037 OVC060 | 5 | 3 | 87% | 3 | 76.25 | 0.0 | 0.03 | |||||
| 30 | 19:36 | S 11 | 16.09 | Light Rain | BKN024 BKN037 OVC060 | 5 | 3 | 87% | 3 | 76.25 | 0.0 | 0.03 | |||||
| 30 | 19:15 | W 19 | 11.27 | Light Rain | SCT018 BKN024 OVC050 | 6 | 3 | 81% | 3 | 76.28 | 0.0 | ||||||
| 30 | 18:55 | W 13 | 16.09 | Overcast | SCT039 BKN065 OVC080 | 7 | 2 | 71% | 5 | 76.25 | 0.0 | ||||||
| 30 | 18:35 | SW 11 | 16.09 | Overcast | OVC080 | 8 | 2 | 66% | 6 | 76.25 | 0.0 | ||||||
| 30 | 18:15 | W 11 | 16.09 | Overcast | SCT060 OVC070 | 8 | 2 | 66% | 6 | 76.25 | 0.0 | ||||||
| 30 | 17:55 | W 19 | 16.09 | Overcast | SCT048 BKN070 OVC080 | 8 | 2 | 66% | 5 | 76.25 | 0.0 | ||||||
| 30 | 17:35 | W 26 | 16.09 | Overcast | BKN048 BKN055 OVC080 | 8 | 1 | 62% | 5 | 76.28 | 0.0 | ||||||
| 30 | 17:16 | NW 13 | 16.09 | Overcast | BKN048 OVC060 | 8 | -1 | 53% | 6 | 76.28 | 0.0 | ||||||
| 30 | 16:55 | NW 11 | 16.09 | Overcast | SCT050 OVC070 | 9 | -1 | 50% | 8 | 76.25 | 0.0 | ||||||
| 30 | 16:35 | NW 7 | 16.09 | Overcast | SCT047 BKN055 OVC075 | 9 | -2 | 46% | 8 | 76.28 | 0.0 | ||||||
| 30 | 16:15 | NW 17 | 16.09 | Overcast | BKN049 OVC055 | 10 | -2 | 43% | 8 | 76.28 | 0.0 | ||||||
| 30 | 15:55 | NW 15 | 16.09 | Overcast | BKN050 OVC075 | 9 | -2 | 46% | 7 | 76.3 | 0.0 | ||||||
| Date | Time (cdt) | Wind (kph) | Vis. (km) | Weather | Sky Cond. | Air | Dwpt | Max. | Min. | Relative Humidity | Wind Chill (°C) | Heat Index (°C) | altimeter (cm) | sea level (mb) | 1 hr | 3 hr | 6 hr |
| 6 hour | |||||||||||||||||
| Temperature (ºC) | Pressure | Precipitation (cm) | |||||||||||||||